Newburg, Wisconsin
Current Conditions -  °F | °C
As of 7:55 PM on Monday 24 Nov 2014 (Local Time) from KETB Reporting Station
Light Snow Light Snow  
Wind Chill: 15°   Ceiling: 1300
Heat Index: 27°   Visibility: 2.5mi
Dew Point: 23°   Wind: 14mph
Humidity: 86%   Direction: 250°WSW
Pressure: 29.57"   Gusts: 22mph
Location:  43.43°N, 88.05°W
Report Text: KETB 250155Z AUTO 25012G19KT 2 1/2SM -SN BKN013 OVC021 M03/M05 A2957 RMK AO2
Loading
Personal Weather Stations






























Interactive Weather Map New forecast layout! Learn more

10-Day Weather Forecast

Advertisements
Track Severe Weather on mobile